CheckWX is a tool to help pilots better visualize weather data.  It is not intended as a substitute for an official pre-flight weather briefing.

17:58:36 UTC

EGPI METAR
Islay Airport
Port Ellen, United Kingdom
Current

39 mins ago

EGPI 251720Z AUTO 30008KT 9999 BKN007/// SCT020/// 16/14 Q1018
Observed
Aug-25 @ 17:20 UTC
Wind
  • 300° at 8 KTS
Visibility
10,000+ meters
Flight Rules
IFR
Cloud Levels
  • Broken at 700' AGL
  • Scattered at 2,000' AGL
Temperature
16°C / 61°F
Dewpoint
14°C / 57°F
Humidity
88%
Altimeter
30.06" Hg
Pressure
1017.92 hPa
Previous

1 hour ago

EGPI 251650Z AUTO 29009KT 250V310 9999 SCT007/// 16/14 Q1017
Observed
Aug-25 @ 16:50 UTC
Wind
  • 290° at 9 KTS
Visibility
10,000+ meters
Flight Rules
VFR
Cloud Levels
  • Scattered at 700' AGL
Temperature
16°C / 61°F
Dewpoint
14°C / 57°F
Humidity
88%
Altimeter
30.03" Hg
Pressure
1016.92 hPa
Previous

2 hours ago

EGPI 251620Z AUTO 26010KT 210V270 9999 NCD 17/15 Q1017
Observed
Aug-25 @ 16:20 UTC
Wind
  • 260° at 10 KTS
Visibility
10,000+ meters
Flight Rules
VFR
Cloud Levels
  • Clear skies
Temperature
17°C / 63°F
Dewpoint
15°C / 59°F
Humidity
88%
Altimeter
30.03" Hg
Pressure
1016.92 hPa